createdAt,value
2022-10-28T00:01:16.434Z,94.76
2022-10-28T00:03:48.250Z,94.95
2022-10-28T00:06:20.596Z,94.81
2022-10-28T00:08:48.806Z,94.84
2022-10-28T00:11:19.857Z,94.81
2022-10-28T00:13:47.863Z,94.85
2022-10-28T00:16:21.279Z,94.78
2022-10-28T00:18:49.453Z,94.79
2022-10-28T00:21:19.926Z,94.82
2022-10-28T00:23:47.677Z,94.90
2022-10-28T00:26:18.390Z,94.86
2022-10-28T00:28:48.454Z,94.85
2022-10-28T00:31:17.830Z,94.85
2022-10-28T00:33:45.982Z,95.01
2022-10-28T00:38:53.735Z,94.97
2022-10-28T00:50:06.150Z,95.01
2022-10-28T00:52:33.904Z,95.00
2022-10-28T00:55:03.130Z,94.97
2022-10-28T00:57:35.056Z,94.94
2022-10-28T01:00:04.652Z,94.98
2022-10-28T01:02:38.037Z,95.28
2022-10-28T01:05:05.856Z,95.28
2022-10-28T01:07:33.486Z,94.89
2022-10-28T01:10:03.173Z,94.43
2022-10-28T01:18:31.785Z,95.00
2022-10-28T01:24:23.729Z,94.75
2022-10-28T01:30:10.319Z,94.94
2022-10-28T01:43:38.174Z,94.92
2022-10-28T01:46:15.638Z,95.16
2022-10-28T01:49:06.110Z,94.94
2022-10-28T01:51:39.522Z,94.98
2022-10-28T01:54:12.524Z,95.01
2022-10-28T01:56:43.654Z,95.02
2022-10-28T01:59:21.543Z,95.03
2022-10-28T02:02:12.606Z,95.03
2022-10-28T02:04:53.758Z,95.26
2022-10-28T02:07:27.954Z,95.04
2022-10-28T02:10:18.439Z,94.99
2022-10-28T02:13:00.028Z,95.05
2022-10-28T02:33:35.535Z,94.82
2022-10-28T02:38:52.799Z,94.93
2022-10-28T02:41:55.777Z,94.76
2022-10-28T02:44:37.640Z,94.84
2022-10-28T02:47:13.439Z,94.73
2022-10-28T02:49:46.166Z,94.73
2022-10-28T02:52:16.082Z,94.81
2022-10-28T02:54:52.959Z,94.85
2022-10-28T02:57:25.308Z,95.05
2022-10-28T03:00:01.504Z,94.88
2022-10-28T03:02:31.986Z,94.55
2022-10-28T03:04:59.545Z,94.56
2022-10-28T03:07:27.252Z,94.59
2022-10-28T03:09:54.893Z,94.92
2022-10-28T03:12:22.485Z,95.00
2022-10-28T03:14:49.961Z,95.00
2022-10-28T03:17:17.406Z,94.80
2022-10-28T03:19:45.240Z,94.96
2022-10-28T03:22:12.667Z,94.77
2022-10-28T03:24:40.035Z,94.77
2022-10-28T03:27:07.496Z,94.95
2022-10-28T03:29:34.909Z,95.04
2022-10-28T03:32:02.551Z,94.78
2022-10-28T03:34:30.034Z,94.78
2022-10-28T03:36:58.109Z,95.11
2022-10-28T03:39:26.118Z,95.17
2022-10-28T03:41:53.459Z,95.12
2022-10-28T03:44:21.190Z,95.10
2022-10-28T03:46:50.936Z,95.17
2022-10-28T03:49:19.837Z,95.21
2022-10-28T03:51:48.589Z,95.11
2022-10-28T03:54:16.663Z,94.64
2022-10-28T03:56:44.310Z,94.64
2022-10-28T03:59:14.158Z,95.20
2022-10-28T04:01:43.958Z,95.25
2022-10-28T04:04:11.768Z,95.08
2022-10-28T04:06:39.175Z,94.69
2022-10-28T04:09:07.486Z,95.02
2022-10-28T04:11:35.811Z,95.07
2022-10-28T04:14:04.263Z,95.14
2022-10-28T04:16:32.045Z,95.27
2022-10-28T04:19:02.630Z,95.38
2022-10-28T04:21:30.458Z,95.21
2022-10-28T04:23:59.101Z,95.25
2022-10-28T04:26:27.737Z,94.76
2022-10-28T04:28:58.583Z,95.21
2022-10-28T04:31:27.823Z,95.22
2022-10-28T04:33:57.972Z,95.10
2022-10-28T04:36:25.812Z,95.12
2022-10-28T04:38:53.835Z,95.20
2022-10-28T04:41:21.297Z,95.25
2022-10-28T04:43:49.276Z,95.19
2022-10-28T04:46:17.683Z,95.26
2022-10-28T04:48:47.909Z,95.36
2022-10-28T04:51:15.833Z,95.59
2022-10-28T04:53:45.351Z,95.46
2022-10-28T04:56:13.466Z,95.41
2022-10-28T04:58:41.553Z,95.32
2022-10-28T05:01:11.357Z,95.32
2022-10-28T05:03:40.326Z,95.58
2022-10-28T05:06:08.754Z,95.58
2022-10-28T05:08:37.068Z,95.46
2022-10-28T05:11:05.273Z,95.51
2022-10-28T05:13:33.976Z,95.46
2022-10-28T05:16:02.081Z,95.44
2022-10-28T05:18:31.502Z,95.38
2022-10-28T05:21:00.285Z,95.45
2022-10-28T05:23:30.772Z,95.41
2022-10-28T05:25:59.906Z,95.39
2022-10-28T05:28:28.639Z,95.38
2022-10-28T05:30:57.352Z,95.35
2022-10-28T05:33:27.983Z,95.35
2022-10-28T05:35:55.450Z,95.67
2022-10-28T05:38:22.840Z,95.67
2022-10-28T05:40:55.705Z,95.27
2022-10-28T05:43:27.524Z,95.22
2022-10-28T05:45:59.579Z,96.13
2022-10-28T05:48:30.367Z,94.95
2022-10-28T05:50:58.687Z,94.95
2022-10-28T05:53:27.641Z,95.25
2022-10-28T05:55:56.552Z,95.23
2022-10-28T05:58:25.644Z,95.22
2022-10-28T06:00:58.830Z,95.96
2022-10-28T06:03:30.973Z,95.31
2022-10-28T06:06:00.938Z,95.26
2022-10-28T06:08:29.133Z,95.24
2022-10-28T06:10:56.841Z,95.25
2022-10-28T06:13:32.818Z,95.07
2022-10-28T06:16:04.493Z,95.07
2022-10-28T06:18:33.513Z,94.97
2022-10-28T06:21:08.396Z,95.00
2022-10-28T06:23:38.678Z,95.07
2022-10-28T06:26:08.786Z,95.08
2022-10-28T06:28:36.311Z,94.94
2022-10-28T06:31:08.371Z,95.21
2022-10-28T06:33:35.949Z,95.21
2022-10-28T06:36:03.620Z,94.93
2022-10-28T06:38:35.067Z,94.91
2022-10-28T06:41:12.646Z,94.97
2022-10-28T06:43:48.920Z,95.10
2022-10-28T06:46:18.796Z,94.95
2022-10-28T06:49:14.855Z,94.91
2022-10-28T06:51:43.472Z,94.85
2022-10-28T06:54:14.132Z,94.85
2022-10-28T06:56:46.778Z,94.87
2022-10-28T06:59:14.238Z,94.86
2022-10-28T07:01:47.565Z,94.80
2022-10-28T07:04:21.398Z,94.76
2022-10-28T07:06:52.097Z,94.72
2022-10-28T07:09:24.194Z,94.73
2022-10-28T07:12:05.091Z,94.72
2022-10-28T07:14:38.899Z,94.77
2022-10-28T07:17:14.718Z,94.86
2022-10-28T07:19:45.223Z,94.91
2022-10-28T07:22:15.595Z,94.95
2022-10-28T07:24:43.028Z,95.12
2022-10-28T07:27:16.086Z,95.08
2022-10-28T07:29:48.850Z,94.81
2022-10-28T07:32:19.531Z,94.91
2022-10-28T07:34:49.359Z,94.93
2022-10-28T07:37:21.925Z,94.93
2022-10-28T07:39:54.946Z,94.91
2022-10-28T07:42:30.326Z,94.43
2022-10-28T07:45:02.218Z,94.43
2022-10-28T07:47:32.736Z,94.70
2022-10-28T07:50:32.920Z,94.43
2022-10-28T07:53:13.179Z,94.13
2022-10-28T07:55:44.018Z,94.00
2022-10-28T07:58:13.526Z,93.91
2022-10-28T08:00:43.342Z,94.02
2022-10-28T08:03:10.849Z,94.39
2022-10-28T08:05:38.301Z,94.04
2022-10-28T08:08:13.934Z,94.05
2022-10-28T08:10:51.090Z,93.90
2022-10-28T08:13:24.927Z,93.96
2022-10-28T08:18:54.323Z,93.76
2022-10-28T08:21:30.085Z,93.75
2022-10-28T08:24:04.956Z,93.63
2022-10-28T08:26:40.216Z,93.63
2022-10-28T08:29:14.184Z,93.37
2022-10-28T08:31:44.421Z,93.35
2022-10-28T08:34:14.678Z,93.62
2022-10-28T08:36:45.156Z,93.53
2022-10-28T08:39:20.734Z,93.59
2022-10-28T08:42:09.005Z,93.52
2022-10-28T08:44:57.390Z,93.32
2022-10-28T08:50:34.083Z,93.36
2022-10-28T08:53:14.233Z,93.39
2022-10-28T08:55:50.281Z,93.47
2022-10-28T08:58:28.744Z,93.60
2022-10-28T09:01:00.233Z,93.20
2022-10-28T09:03:39.041Z,93.53
2022-10-28T09:06:15.781Z,93.58
2022-10-28T09:08:47.591Z,93.88
2022-10-28T09:11:34.686Z,93.79
2022-10-28T09:17:27.273Z,93.80
2022-10-28T09:20:13.370Z,93.88
2022-10-28T09:22:58.290Z,93.89
2022-10-28T09:25:57.403Z,93.67
2022-10-28T09:31:39.642Z,93.42
2022-10-28T09:37:13.920Z,93.26
2022-10-28T09:40:13.889Z,93.16
2022-10-28T09:43:06.004Z,93.03
2022-10-28T09:45:56.889Z,93.25
2022-10-28T09:48:45.700Z,93.36
2022-10-28T09:51:43.567Z,93.26
2022-10-28T09:54:16.859Z,92.94
2022-10-28T10:07:45.529Z,92.56
2022-10-28T10:10:25.040Z,92.22
2022-10-28T10:12:59.522Z,92.20
2022-10-28T10:16:18.322Z,92.36
2022-10-28T10:18:58.604Z,92.13
2022-10-28T10:24:37.079Z,91.59
2022-10-28T10:30:07.174Z,92.01
2022-10-28T10:32:41.432Z,92.07
2022-10-28T10:37:52.147Z,92.26
2022-10-28T10:40:34.489Z,92.07
2022-10-28T10:43:26.313Z,92.21
2022-10-28T10:48:50.736Z,91.99
2022-10-28T10:51:26.381Z,92.02
2022-10-28T10:54:15.212Z,91.77
2022-10-28T10:56:47.068Z,91.79
2022-10-28T10:59:31.332Z,91.90
2022-10-28T11:02:02.138Z,91.91
2022-10-28T11:04:41.782Z,91.72
2022-10-28T11:13:06.472Z,91.92
2022-10-28T11:15:38.837Z,91.91
2022-10-28T11:20:57.519Z,92.18
2022-10-28T11:26:13.939Z,92.22
2022-10-28T11:29:07.830Z,92.30
2022-10-28T11:40:29.311Z,92.33
2022-10-28T11:43:25.367Z,92.25
2022-10-28T11:46:05.101Z,92.45
2022-10-28T11:54:20.764Z,92.50
2022-10-28T11:57:02.225Z,92.16
2022-10-28T12:00:15.060Z,92.50
2022-10-28T12:11:12.323Z,92.64
2022-10-28T12:14:05.119Z,92.60
2022-10-28T12:16:42.313Z,92.87
2022-10-28T12:19:17.560Z,92.63
2022-10-28T12:24:37.307Z,92.63
2022-10-28T12:27:18.248Z,92.67
2022-10-28T12:29:51.775Z,92.52
2022-10-28T12:32:26.571Z,93.27
2022-10-28T12:37:42.130Z,93.63
2022-10-28T12:40:20.941Z,93.63
2022-10-28T12:43:02.686Z,92.79
2022-10-28T12:45:32.444Z,92.83
2022-10-28T12:48:14.806Z,92.88
2022-10-28T12:50:53.018Z,92.97
2022-10-28T12:53:31.391Z,92.99
2022-10-28T12:56:13.416Z,94.16
2022-10-28T13:01:35.255Z,93.15
2022-10-28T13:04:02.962Z,93.23
2022-10-28T13:09:38.001Z,93.26
2022-10-28T13:12:22.756Z,93.33
2022-10-28T13:15:29.700Z,93.33
2022-10-28T13:28:54.299Z,93.63
2022-10-28T13:31:33.467Z,93.57
2022-10-28T13:34:01.055Z,93.82
2022-10-28T13:36:49.108Z,93.79
2022-10-28T13:45:15.133Z,93.96
2022-10-28T13:47:42.583Z,94.09
2022-10-28T13:50:16.008Z,94.25
2022-10-28T13:58:24.426Z,94.30
2022-10-28T14:00:53.856Z,94.36
2022-10-28T14:03:37.998Z,94.62
2022-10-28T14:06:19.148Z,94.51
2022-10-28T14:08:46.961Z,94.67
2022-10-28T14:11:24.264Z,94.68
2022-10-28T14:13:57.112Z,94.80
2022-10-28T14:16:33.584Z,94.85
2022-10-28T14:19:05.968Z,94.88
2022-10-28T14:24:42.773Z,94.99
2022-10-28T14:49:38.044Z,95.00
2022-10-28T14:52:17.221Z,95.08
2022-10-28T14:54:51.944Z,95.08
2022-10-28T14:57:23.094Z,95.14
2022-10-28T14:59:52.000Z,95.20
2022-10-28T15:02:28.056Z,95.24
2022-10-28T15:07:58.446Z,95.36
2022-10-28T15:10:44.576Z,95.34
2022-10-28T15:13:18.425Z,95.31
2022-10-28T15:15:57.345Z,95.27
2022-10-28T15:18:27.109Z,95.33
2022-10-28T15:21:12.546Z,95.36
2022-10-28T15:23:52.169Z,95.36
2022-10-28T15:26:19.943Z,95.35
2022-10-28T15:28:47.693Z,95.39
2022-10-28T15:31:17.323Z,95.39
2022-10-28T15:33:45.346Z,95.36
2022-10-28T15:39:06.166Z,95.61
2022-10-28T15:42:04.870Z,95.61
2022-10-28T15:44:39.051Z,95.37
2022-10-28T15:47:29.373Z,95.36
2022-10-28T15:52:57.362Z,95.42
2022-10-28T15:55:47.692Z,95.43
2022-10-28T16:00:57.631Z,95.50
2022-10-28T16:03:31.215Z,95.45
2022-10-28T16:06:00.133Z,95.47
2022-10-28T16:08:30.453Z,95.47
2022-10-28T16:11:15.516Z,95.59
2022-10-28T16:13:49.286Z,95.44
2022-10-28T16:16:25.922Z,95.58
2022-10-28T16:19:27.192Z,95.55
2022-10-28T16:21:54.674Z,96.52
2022-10-28T16:24:22.199Z,95.53
2022-10-28T16:26:49.590Z,95.51
2022-10-28T16:29:16.966Z,95.54
2022-10-28T16:31:50.673Z,95.57
2022-10-28T16:34:18.259Z,95.58
2022-10-28T16:36:45.658Z,96.08
2022-10-28T16:39:13.482Z,95.56
2022-10-28T16:41:41.317Z,95.58
2022-10-28T16:44:17.971Z,95.56
2022-10-28T16:46:57.431Z,95.55
2022-10-28T16:49:24.873Z,95.63
2022-10-28T16:52:04.621Z,95.63
2022-10-28T16:54:32.230Z,95.63
2022-10-28T16:57:00.167Z,95.63
2022-10-28T16:59:28.106Z,95.94
2022-10-28T17:02:08.173Z,95.94
2022-10-28T17:04:36.182Z,95.75
2022-10-28T17:07:03.689Z,95.88
2022-10-28T17:09:43.125Z,95.89
2022-10-28T17:12:15.099Z,95.93
2022-10-28T17:14:42.746Z,95.95
2022-10-28T17:17:12.101Z,95.50
2022-10-28T17:19:40.622Z,95.50
2022-10-28T17:22:10.554Z,96.04
2022-10-28T17:24:38.941Z,96.10
2022-10-28T17:27:07.648Z,96.16
2022-10-28T17:29:35.671Z,96.25
2022-10-28T17:32:03.218Z,96.30
2022-10-28T17:34:30.618Z,96.30
2022-10-28T17:37:13.517Z,96.29
2022-10-28T17:39:43.292Z,96.32
2022-10-28T17:42:10.802Z,96.35
2022-10-28T17:47:23.023Z,96.36
2022-10-28T17:49:50.533Z,96.35
2022-10-28T17:52:34.240Z,96.37
2022-10-28T17:55:18.643Z,96.37
2022-10-28T17:57:46.092Z,96.38
2022-10-28T18:00:14.515Z,96.39
2022-10-28T18:02:53.941Z,96.37
2022-10-28T18:05:21.488Z,96.38
2022-10-28T18:07:49.040Z,96.45
2022-10-28T18:10:17.133Z,96.46
2022-10-28T18:12:44.505Z,96.39
2022-10-28T18:15:24.820Z,96.40
2022-10-28T18:18:04.312Z,96.44
2022-10-28T18:20:32.397Z,96.46
2022-10-28T18:23:00.369Z,96.54
2022-10-28T18:28:12.239Z,96.45
2022-10-28T18:30:39.660Z,96.47
2022-10-28T18:33:06.996Z,96.49
2022-10-28T18:38:19.434Z,96.50
2022-10-28T18:40:59.778Z,96.53
2022-10-28T18:43:28.056Z,96.38
2022-10-28T18:46:12.329Z,96.59
2022-10-28T18:51:25.086Z,96.62
2022-10-28T18:53:52.748Z,96.60
2022-10-28T18:56:34.474Z,96.57
2022-10-28T18:59:04.586Z,96.46
2022-10-28T19:01:33.436Z,96.60
2022-10-28T19:04:04.456Z,96.63
2022-10-28T19:06:33.576Z,98.01
2022-10-28T19:09:17.677Z,98.01
2022-10-28T19:11:45.043Z,96.57
2022-10-28T19:14:12.589Z,96.58
2022-10-28T19:16:51.942Z,96.58
2022-10-28T19:19:19.510Z,96.60
2022-10-28T19:21:46.933Z,96.61
2022-10-28T19:24:26.184Z,96.60
2022-10-28T19:26:53.743Z,96.62
2022-10-28T19:32:05.898Z,96.76
2022-10-28T19:34:33.387Z,96.66
2022-10-28T19:37:00.728Z,96.62
2022-10-28T19:39:29.566Z,96.65
2022-10-28T19:41:56.981Z,96.64
2022-10-28T19:44:24.589Z,96.66
2022-10-28T19:46:51.976Z,96.64
2022-10-28T19:49:23.808Z,96.67
2022-10-28T19:52:05.555Z,96.71
2022-10-28T19:54:33.799Z,96.63
2022-10-28T19:57:01.464Z,96.57
2022-10-28T19:59:40.977Z,96.65
2022-10-28T20:02:10.558Z,96.66
2022-10-28T20:04:50.183Z,96.86
2022-10-28T20:07:19.101Z,96.86
2022-10-28T20:09:46.612Z,96.64
2022-10-28T20:12:26.142Z,96.65
2022-10-28T20:15:05.560Z,96.70
2022-10-28T20:17:32.951Z,97.03
2022-10-28T20:20:00.328Z,96.92
2022-10-28T20:25:12.438Z,96.68
2022-10-28T20:27:39.786Z,97.04
2022-10-28T20:30:07.870Z,97.04
2022-10-28T20:32:36.668Z,96.72
2022-10-28T20:35:16.275Z,96.73
2022-10-28T20:37:43.740Z,96.77
2022-10-28T20:40:11.810Z,96.77
2022-10-28T20:42:39.457Z,96.75
2022-10-28T20:45:07.208Z,96.73
2022-10-28T20:47:34.625Z,96.72
2022-10-28T20:50:02.010Z,96.73
2022-10-28T20:52:30.803Z,96.71
2022-10-28T20:54:58.375Z,96.66
2022-10-28T20:57:25.754Z,96.66
2022-10-28T20:59:53.127Z,96.73
2022-10-28T21:02:20.586Z,96.73
2022-10-28T21:04:59.906Z,96.73
2022-10-28T21:07:27.199Z,96.80
2022-10-28T21:09:54.466Z,96.83
2022-10-28T21:12:21.797Z,96.82
2022-10-28T21:14:49.136Z,96.82
2022-10-28T21:17:16.465Z,96.83
2022-10-28T21:19:43.798Z,96.87
2022-10-28T21:22:11.213Z,96.94
2022-10-28T21:24:38.559Z,96.95
2022-10-28T21:27:05.900Z,96.88
2022-10-28T21:29:33.177Z,96.89
2022-10-28T21:32:00.528Z,96.91
2022-10-28T21:34:27.797Z,96.89
2022-10-28T21:36:55.230Z,96.92
2022-10-28T21:39:22.551Z,96.96
2022-10-28T21:41:49.876Z,97.03
2022-10-28T21:44:17.169Z,97.05
2022-10-28T21:46:48.065Z,97.08
2022-10-28T21:49:15.401Z,97.07
2022-10-28T21:51:43.170Z,97.10
2022-10-28T21:54:10.428Z,97.11
2022-10-28T21:56:37.745Z,97.14
2022-10-28T21:59:05.542Z,97.12
2022-10-28T22:01:33.215Z,97.17
2022-10-28T22:04:12.837Z,97.17
2022-10-28T22:06:40.233Z,97.11
2022-10-28T22:09:07.578Z,97.17
2022-10-28T22:11:34.900Z,97.17
2022-10-28T22:17:00.582Z,97.18
2022-10-28T22:19:27.954Z,97.17
2022-10-28T22:22:07.510Z,97.22
2022-10-28T22:24:34.880Z,97.22
2022-10-28T22:27:02.214Z,97.25
2022-10-28T22:29:29.531Z,97.57
2022-10-28T22:31:56.835Z,97.19
2022-10-28T22:34:24.203Z,97.19
2022-10-28T22:36:51.463Z,97.50
2022-10-28T22:39:18.745Z,97.20
2022-10-28T22:41:46.099Z,97.18
2022-10-28T22:44:13.432Z,97.18
2022-10-28T22:46:41.495Z,97.18
2022-10-28T22:49:08.841Z,97.06
2022-10-28T22:51:48.111Z,97.07
2022-10-28T22:54:16.182Z,96.73
2022-10-28T22:56:58.665Z,96.11
2022-10-28T22:59:26.045Z,96.11
2022-10-28T23:01:53.522Z,97.17
2022-10-28T23:04:20.964Z,97.17
2022-10-28T23:07:00.273Z,97.16
2022-10-28T23:09:27.549Z,97.18
2022-10-28T23:11:54.892Z,97.21
2022-10-28T23:14:22.268Z,97.19
2022-10-28T23:16:50.116Z,97.19
2022-10-28T23:19:17.479Z,96.93
2022-10-28T23:21:44.779Z,97.20
2022-10-28T23:24:12.113Z,97.19
2022-10-28T23:26:51.653Z,97.23
2022-10-28T23:29:19.504Z,97.23
2022-10-28T23:31:46.833Z,97.21
2022-10-28T23:34:14.182Z,97.24
2022-10-28T23:36:41.662Z,97.26
2022-10-28T23:39:08.967Z,97.44
2022-10-28T23:41:36.267Z,97.28
2022-10-28T23:44:03.627Z,97.29
2022-10-28T23:46:36.491Z,97.32
2022-10-28T23:49:04.937Z,97.36
2022-10-28T23:51:32.354Z,97.36
2022-10-28T23:54:00.143Z,97.39
2022-10-28T23:56:27.466Z,97.40
2022-10-28T23:58:54.790Z,97.44
